createdAt,value
2018-11-10T00:01:23.508Z,72.96
2018-11-10T00:06:27.355Z,72.79
2018-11-10T00:11:31.710Z,72.27
2018-11-10T00:16:35.786Z,72.48
2018-11-10T00:21:40.227Z,72.82
2018-11-10T00:26:43.953Z,73.02
2018-11-10T00:31:47.701Z,72.51
2018-11-10T00:36:51.276Z,72.94
2018-11-10T00:41:54.990Z,73.43
2018-11-10T00:46:58.500Z,73.44
2018-11-10T00:52:01.807Z,73.31
2018-11-10T00:57:05.507Z,73.39
2018-11-10T01:02:08.921Z,73.32
2018-11-10T01:07:12.349Z,73.57
2018-11-10T01:12:15.625Z,73.62
2018-11-10T01:17:18.992Z,73.84
2018-11-10T01:22:22.489Z,73.24
2018-11-10T01:27:25.822Z,73.52
2018-11-10T01:32:29.171Z,73.53
2018-11-10T01:37:32.599Z,73.17
2018-11-10T01:42:35.982Z,73.36
2018-11-10T01:47:39.498Z,72.92
2018-11-10T01:52:43.236Z,73.08
2018-11-10T01:57:46.804Z,72.90
2018-11-10T02:02:50.333Z,72.47
2018-11-10T02:07:53.910Z,72.60
2018-11-10T02:12:57.265Z,72.90
2018-11-10T02:18:00.876Z,72.69
2018-11-10T02:23:04.481Z,72.46
2018-11-10T02:28:08.057Z,71.03
2018-11-10T02:33:11.425Z,72.74
2018-11-10T02:38:14.853Z,72.84
2018-11-10T02:43:18.223Z,72.58
2018-11-10T02:48:21.593Z,71.97
2018-11-10T02:53:24.868Z,72.66
2018-11-10T02:58:28.190Z,73.37
2018-11-10T03:03:31.539Z,73.79
2018-11-10T03:08:34.937Z,74.20
2018-11-10T03:13:38.473Z,74.32
2018-11-10T03:18:41.888Z,74.62
2018-11-10T03:23:45.360Z,74.90
2018-11-10T03:28:48.737Z,75.10
2018-11-10T03:33:52.305Z,75.11
2018-11-10T03:38:55.622Z,75.14
2018-11-10T03:43:58.914Z,75.13
2018-11-10T03:49:02.192Z,75.46
2018-11-10T03:54:06.364Z,74.93
2018-11-10T03:59:09.724Z,75.02
2018-11-10T04:04:13.410Z,75.51
2018-11-10T04:09:16.817Z,75.74
2018-11-10T04:14:20.163Z,74.96
2018-11-10T04:19:23.450Z,75.08
2018-11-10T04:24:26.721Z,75.46
2018-11-10T04:29:30.121Z,75.48
2018-11-10T04:34:33.645Z,75.71
2018-11-10T04:39:37.153Z,75.60
2018-11-10T04:44:40.604Z,75.00
2018-11-10T04:49:44.030Z,74.99
2018-11-10T04:54:47.525Z,75.05
2018-11-10T04:59:51.186Z,74.94
2018-11-10T05:04:54.631Z,74.70
2018-11-10T05:09:58.017Z,75.20
2018-11-10T05:15:01.339Z,75.32
2018-11-10T05:20:05.234Z,74.44
2018-11-10T05:25:09.585Z,74.74
2018-11-10T05:30:12.998Z,74.96
2018-11-10T05:35:16.389Z,75.12
2018-11-10T05:40:19.676Z,75.30
2018-11-10T05:45:23.165Z,75.40
2018-11-10T05:50:26.585Z,75.26
2018-11-10T05:55:29.896Z,75.26
2018-11-10T06:00:33.657Z,75.77
2018-11-10T06:05:37.033Z,75.86
2018-11-10T06:10:40.327Z,75.64
2018-11-10T06:15:43.675Z,75.70
2018-11-10T06:20:47.195Z,75.37
2018-11-10T06:25:50.684Z,75.42
2018-11-10T06:30:54.257Z,75.25
2018-11-10T06:35:57.613Z,74.55
2018-11-10T06:41:00.901Z,74.26
2018-11-10T06:46:04.273Z,73.93
2018-11-10T06:51:08.365Z,73.67
2018-11-10T06:56:11.742Z,73.60
2018-11-10T07:01:15.298Z,73.38
2018-11-10T07:06:18.912Z,72.95
2018-11-10T07:11:22.285Z,72.83
2018-11-10T07:16:25.877Z,72.57
2018-11-10T07:21:29.434Z,72.50
2018-11-10T07:26:33.134Z,72.86
2018-11-10T07:31:36.921Z,72.66
2018-11-10T07:36:40.330Z,72.01
2018-11-10T07:41:43.604Z,72.27
2018-11-10T07:46:46.933Z,71.63
2018-11-10T07:51:50.345Z,72.01
2018-11-10T07:56:53.777Z,71.54
2018-11-10T08:01:57.173Z,71.35
2018-11-10T08:07:00.508Z,70.84
2018-11-10T08:12:03.850Z,70.92
2018-11-10T08:17:07.786Z,70.66
2018-11-10T08:22:11.123Z,70.58
2018-11-10T08:27:16.510Z,69.55
2018-11-10T08:32:20.034Z,69.60
2018-11-10T08:37:23.506Z,69.56
2018-11-10T08:42:26.890Z,69.18
2018-11-10T08:47:30.351Z,68.49
2018-11-10T08:52:33.710Z,68.88
2018-11-10T08:57:39.001Z,68.92
2018-11-10T09:02:42.795Z,67.92
2018-11-10T09:07:46.463Z,68.18
2018-11-10T09:12:51.575Z,67.20
2018-11-10T09:17:55.384Z,67.22
2018-11-10T09:22:58.985Z,65.88
2018-11-10T09:28:04.052Z,65.71
2018-11-10T09:33:07.625Z,66.37
2018-11-10T09:38:12.477Z,66.43
2018-11-10T09:43:15.868Z,66.04
2018-11-10T09:48:19.606Z,65.98
2018-11-10T09:53:23.053Z,66.56
2018-11-10T09:58:27.024Z,65.43
2018-11-10T10:03:30.767Z,64.26
2018-11-10T10:08:34.495Z,64.30
2018-11-10T10:13:38.245Z,63.46
2018-11-10T10:18:41.713Z,62.21
2018-11-10T10:29:13.785Z,57.78
2018-11-10T10:34:17.593Z,57.13
2018-11-10T10:39:21.194Z,56.49
2018-11-10T10:44:27.109Z,55.34
2018-11-10T10:49:30.859Z,55.62
2018-11-10T10:54:36.048Z,55.04
2018-11-10T10:59:39.791Z,54.17
2018-11-10T11:04:49.028Z,53.42
2018-11-10T11:09:52.597Z,51.56
2018-11-10T11:14:58.417Z,42.24
2018-11-10T11:20:02.107Z,32.80
2018-11-10T11:25:06.548Z,31.91
2018-11-10T11:30:18.580Z,30.24
2018-11-10T11:35:24.481Z,29.54
2018-11-10T11:40:27.775Z,29.08
2018-11-10T11:45:31.137Z,29.89
2018-11-10T11:50:34.668Z,27.87
2018-11-10T11:55:39.236Z,26.38
2018-11-10T12:00:43.064Z,25.32
2018-11-10T12:05:46.906Z,26.90
2018-11-10T12:10:50.558Z,27.30
2018-11-10T12:15:54.400Z,34.08
2018-11-10T12:20:58.060Z,31.63
2018-11-10T12:26:01.608Z,29.47
2018-11-10T12:31:05.923Z,31.04
2018-11-10T12:36:09.514Z,33.87
2018-11-10T12:41:12.953Z,39.07
2018-11-10T12:46:17.860Z,41.43
2018-11-10T12:51:21.623Z,38.73
2018-11-10T12:56:25.709Z,31.46
2018-11-10T13:01:29.516Z,32.73
2018-11-10T13:06:33.150Z,29.08
2018-11-10T13:11:37.346Z,31.76
2018-11-10T13:16:40.984Z,38.89
2018-11-10T13:21:44.622Z,44.58
2018-11-10T13:26:48.009Z,47.04
2018-11-10T13:31:51.447Z,48.90
2018-11-10T13:36:54.827Z,50.41
2018-11-10T13:41:58.161Z,50.65
2018-11-10T13:47:01.798Z,52.04
2018-11-10T13:52:05.905Z,52.85
2018-11-10T13:57:09.133Z,52.91
2018-11-10T14:02:12.705Z,53.61
2018-11-10T14:07:16.072Z,54.42
2018-11-10T14:12:19.385Z,54.58
2018-11-10T14:17:22.685Z,55.29
2018-11-10T14:22:26.373Z,56.50
2018-11-10T14:27:30.197Z,57.21
2018-11-10T14:32:33.837Z,57.78
2018-11-10T14:37:38.269Z,58.41
2018-11-10T14:42:50.784Z,58.80
2018-11-10T14:47:54.780Z,59.22
2018-11-10T14:52:59.012Z,60.04
2018-11-10T14:58:03.104Z,61.05
2018-11-10T15:03:06.964Z,60.79
2018-11-10T15:08:10.595Z,61.65
2018-11-10T15:13:14.396Z,62.74
2018-11-10T15:18:19.156Z,62.94
2018-11-10T15:23:22.848Z,63.82
2018-11-10T15:28:26.187Z,64.10
2018-11-10T15:33:30.256Z,64.86
2018-11-10T15:38:33.635Z,65.41
2018-11-10T15:43:37.149Z,65.25
2018-11-10T15:48:40.658Z,65.73
2018-11-10T15:53:44.437Z,65.99
2018-11-10T15:58:48.904Z,65.82
2018-11-10T16:03:52.768Z,66.24
2018-11-10T16:08:57.007Z,66.58
2018-11-10T16:14:00.918Z,66.71
2018-11-10T16:19:06.016Z,67.37
2018-11-10T16:24:10.282Z,67.94
2018-11-10T16:29:14.908Z,67.83
2018-11-10T16:34:18.698Z,67.45
2018-11-10T16:39:22.134Z,67.81
2018-11-10T16:44:37.181Z,68.19
2018-11-10T17:12:08.199Z,68.21
2018-11-10T17:17:11.778Z,68.13
2018-11-10T17:22:15.331Z,67.87
2018-11-10T17:27:18.562Z,68.07
2018-11-10T17:32:22.086Z,68.54
2018-11-10T17:37:25.388Z,68.02
2018-11-10T17:42:28.949Z,68.04
2018-11-10T17:47:32.285Z,68.18
2018-11-10T17:52:35.660Z,68.20
2018-11-10T17:57:39.024Z,68.25
2018-11-10T18:02:42.530Z,68.18
2018-11-10T18:07:46.943Z,68.69
2018-11-10T18:12:50.728Z,68.55
2018-11-10T18:17:54.187Z,68.41
2018-11-10T18:22:58.174Z,68.71
2018-11-10T18:28:01.962Z,68.62
2018-11-10T18:33:05.954Z,69.04
2018-11-10T18:38:09.534Z,68.41
2018-11-10T18:43:13.061Z,68.66
2018-11-10T18:48:16.829Z,68.56
2018-11-10T18:53:20.483Z,68.71
2018-11-10T18:58:24.472Z,68.95
2018-11-10T19:03:28.357Z,68.53
2018-11-10T19:08:32.125Z,68.13
2018-11-10T19:13:35.787Z,68.55
2018-11-10T19:18:40.003Z,68.38
2018-11-10T19:23:44.557Z,68.57
2018-11-10T20:02:30.929Z,67.84
2018-11-10T20:07:39.543Z,67.59
2018-11-10T20:12:46.995Z,68.08
2018-11-10T20:23:28.745Z,67.47
2018-11-10T20:28:39.442Z,67.05
2018-11-10T20:33:50.702Z,67.03
2018-11-10T20:38:54.424Z,66.35
2018-11-10T20:43:58.684Z,66.64
2018-11-10T20:49:02.542Z,66.73
2018-11-10T20:54:06.179Z,67.02
2018-11-10T20:59:09.761Z,67.56
2018-11-10T21:04:14.407Z,67.71
2018-11-10T21:09:18.751Z,67.61
2018-11-10T21:14:23.667Z,67.71
2018-11-10T21:19:27.402Z,67.89
2018-11-10T21:24:33.380Z,68.17
2018-11-10T21:29:36.891Z,68.01
2018-11-10T21:34:40.694Z,67.78
2018-11-10T21:39:44.389Z,67.96
2018-11-10T21:44:48.009Z,67.93
2018-11-10T21:49:51.554Z,67.88
2018-11-10T21:54:54.881Z,67.79
2018-11-10T21:59:58.471Z,67.69
2018-11-10T22:05:02.127Z,67.64
2018-11-10T22:10:07.228Z,67.44
2018-11-10T22:15:15.518Z,67.05
2018-11-10T22:20:20.470Z,67.84
2018-11-10T22:25:24.066Z,67.94
2018-11-10T22:30:27.449Z,68.62
2018-11-10T22:35:30.781Z,68.60
2018-11-10T22:40:34.444Z,68.55
2018-11-10T22:45:37.954Z,68.86
2018-11-10T22:50:41.299Z,68.61
2018-11-10T22:55:44.819Z,68.88
2018-11-10T23:00:53.731Z,68.61
2018-11-10T23:05:57.471Z,68.53
2018-11-10T23:11:01.172Z,68.73
2018-11-10T23:16:04.959Z,68.46
2018-11-10T23:21:10.429Z,68.45
2018-11-10T23:26:14.240Z,68.52
2018-11-10T23:31:17.841Z,68.65
2018-11-10T23:36:21.606Z,68.54
2018-11-10T23:41:25.327Z,68.29
2018-11-10T23:46:29.251Z,67.99
2018-11-10T23:51:33.265Z,68.60
2018-11-10T23:56:36.960Z,69.12
